Time;durP1;ratioP1;P1;durP2;ratioP2;P2;SDS_P1;SDS_P2;PMS_P1;PMS_P2;Temp;Humidity;BMP_temperature;BMP_pressure;BME280_temperature;BME280_humidity;BME280_pressure;Samples;Min_cycle;Max_cycle;Signal;HPM_P1;HPM_P2
2021/09/02 00:06:18;;;;;;;17.1;11.7;;;;;;;13.47;100;99141.69;;;;
2021/09/02 00:16:18;;;;;;;13.1;11.7;;;;;;;13.44;100;99150.44;;;;
2021/09/02 00:26:18;;;;;;;15.9;10.4;;;;;;;13.51;100;99158.12;;;;
2021/09/02 00:36:18;;;;;;;10.9;9.4;;;;;;;13.49;100;99161.16;;;;
2021/09/02 00:46:18;;;;;;;14.8;10.1;;;;;;;13.45;100;99175.62;;;;
2021/09/02 00:56:14;;;;;;;17.6;11.6;;;;;;;13.34;100;99171.58;;;;
2021/09/02 01:06:13;;;;;;;19.5;14.6;;;;;;;13.33;100;99162.66;;;;
2021/09/02 01:16:13;;;;;;;19;14.2;;;;;;;13.26;100;99175.05;;;;
2021/09/02 01:26:12;;;;;;;16.3;13.4;;;;;;;13.13;100;99178.63;;;;
2021/09/02 01:36:12;;;;;;;14;10.8;;;;;;;13.1;100;99169.22;;;;
2021/09/02 01:46:12;;;;;;;12.1;10.6;;;;;;;13.05;100;99158.52;;;;
2021/09/02 01:56:11;;;;;;;18;14;;;;;;;12.93;100;99164.47;;;;
2021/09/02 02:06:11;;;;;;;21.3;12.7;;;;;;;12.89;100;99152.66;;;;
2021/09/02 02:16:10;;;;;;;15.8;13.6;;;;;;;12.79;100;99152.92;;;;
2021/09/02 02:26:09;;;;;;;18.4;14.1;;;;;;;12.53;100;99152.72;;;;
2021/09/02 02:36:09;;;;;;;20.2;13.2;;;;;;;12.38;100;99149.58;;;;
2021/09/02 02:46:08;;;;;;;17;14;;;;;;;12.35;100;99150.19;;;;
2021/09/02 02:56:08;;;;;;;18.6;14.1;;;;;;;12.42;100;99150.57;;;;
2021/09/02 03:06:08;;;;;;;18.8;13.1;;;;;;;12.52;100;99156.55;;;;
2021/09/02 03:16:06;;;;;;;24;14.8;;;;;;;12.58;100;99151.8;;;;
2021/09/02 03:26:06;;;;;;;21.6;15.1;;;;;;;12.53;100;99165.43;;;;
2021/09/02 03:36:05;;;;;;;19.6;14.1;;;;;;;12.57;100;99175.34;;;;
2021/09/02 03:46:05;;;;;;;21.8;16.4;;;;;;;12.61;100;99183.64;;;;
2021/09/02 03:56:04;;;;;;;20.1;14.9;;;;;;;12.66;100;99180.83;;;;
2021/09/02 04:06:04;;;;;;;16.9;14.1;;;;;;;12.8;100;99191.59;;;;
2021/09/02 04:16:03;;;;;;;19;14.5;;;;;;;12.88;100;99199.75;;;;
2021/09/02 04:26:03;;;;;;;18.6;15.1;;;;;;;12.88;100;99210.58;;;;
2021/09/02 04:36:02;;;;;;;23.4;13.7;;;;;;;12.93;100;99202.35;;;;
2021/09/02 04:46:02;;;;;;;26.2;13.9;;;;;;;12.96;100;99204.44;;;;
2021/09/02 04:56:01;;;;;;;19.1;15.3;;;;;;;13.18;100;99219.1;;;;
2021/09/02 05:06:01;;;;;;;20.5;15.9;;;;;;;13.33;100;99221.44;;;;
2021/09/02 05:16:00;;;;;;;23.3;15.6;;;;;;;13.62;100;99235.28;;;;
2021/09/02 05:26:00;;;;;;;19.2;16;;;;;;;13.75;100;99250.63;;;;
2021/09/02 05:35:59;;;;;;;17.5;15;;;;;;;13.98;100;99248.67;;;;
2021/09/02 05:45:59;;;;;;;19.9;14;;;;;;;14.17;100;99249.2;;;;
2021/09/02 05:55:59;;;;;;;16.8;10.7;;;;;;;14.4;100;99253.45;;;;
2021/09/02 06:05:58;;;;;;;27.1;11.9;;;;;;;14.78;100;99267.23;;;;
2021/09/02 06:15:58;;;;;;;14.3;10.6;;;;;;;14.59;100;99274.86;;;;
2021/09/02 06:25:58;;;;;;;16.9;11.8;;;;;;;14.97;100;99275.05;;;;
2021/09/02 06:35:57;;;;;;;15.7;12.1;;;;;;;14.92;100;99280.66;;;;
2021/09/02 06:45:57;;;;;;;13.5;12.1;;;;;;;15.27;100;99286.88;;;;
2021/09/02 06:55:57;;;;;;;22.5;12.6;;;;;;;15.57;100;99304.91;;;;
2021/09/02 07:05:57;;;;;;;14.1;9.6;;;;;;;15.67;100;99314.64;;;;
2021/09/02 07:15:57;;;;;;;15.5;10.9;;;;;;;15.82;100;99328.53;;;;
2021/09/02 07:25:57;;;;;;;11.1;8.2;;;;;;;16.46;100;99347.47;;;;
2021/09/02 07:35:57;;;;;;;10.6;7.6;;;;;;;16.57;100;99335.94;;;;
2021/09/02 07:45:57;;;;;;;9.6;8.4;;;;;;;16.73;100;99349.77;;;;
2021/09/02 07:55:58;;;;;;;14.8;8.3;;;;;;;16.39;100;99341.75;;;;
2021/09/02 08:05:57;;;;;;;14.3;6.4;;;;;;;16.45;100;99359.5;;;;
2021/09/02 08:15:57;;;;;;;7.4;4.7;;;;;;;16.51;100;99361.72;;;;
2021/09/02 08:25:57;;;;;;;11.9;5.5;;;;;;;17.08;100;99363.95;;;;
2021/09/02 08:35:57;;;;;;;9.8;4.9;;;;;;;16.93;100;99373.53;;;;
2021/09/02 08:45:57;;;;;;;10.1;5.2;;;;;;;17.12;100;99364.89;;;;
2021/09/02 08:55:57;;;;;;;12;8.7;;;;;;;17.38;100;99357.34;;;;
2021/09/02 09:05:58;;;;;;;13.1;6.4;;;;;;;17.94;100;99363.27;;;;
2021/09/02 09:15:57;;;;;;;11.7;5.2;;;;;;;18.66;100;99368.05;;;;
2021/09/02 09:25:57;;;;;;;9;6.3;;;;;;;18.33;100;99365.37;;;;
2021/09/02 09:35:57;;;;;;;16.4;8.2;;;;;;;19.53;100;99351.97;;;;
2021/09/02 09:45:58;;;;;;;8.4;4.5;;;;;;;19.74;100;99366.23;;;;
2021/09/02 09:55:58;;;;;;;5.2;4.2;;;;;;;20.15;100;99364.19;;;;
2021/09/02 10:05:58;;;;;;;6.1;3;;;;;;;20.5;100;99368.66;;;;
2021/09/02 10:15:59;;;;;;;6.9;3.5;;;;;;;20.01;100;99376.36;;;;
2021/09/02 10:25:59;;;;;;;6.2;4.3;;;;;;;19.74;100;99366.23;;;;
2021/09/02 10:35:59;;;;;;;5.8;2.9;;;;;;;19.5;100;99371.8;;;;
2021/09/02 10:46:00;;;;;;;6.9;3.8;;;;;;;19.5;100;99369.88;;;;
2021/09/02 10:56:00;;;;;;;10.9;5.6;;;;;;;20.25;100;99382.83;;;;
2021/09/02 11:06:00;;;;;;;8.6;4.1;;;;;;;19.69;100;99376.61;;;;
2021/09/02 11:16:01;;;;;;;7.6;4.3;;;;;;;19.05;100;99374.73;;;;
2021/09/02 11:26:01;;;;;;;13.7;5.7;;;;;;;19.09;100;99389.27;;;;
2021/09/02 11:36:04;;;;;;;7.5;5.5;;;;;;;19;100;99392.15;;;;
2021/09/02 11:46:02;;;;;;;9.4;5.1;;;;;;;18.73;100;99386.59;;;;
2021/09/02 11:56:02;;;;;;;9.3;4.9;;;;;;;18.71;100;99386.91;;;;
2021/09/02 12:06:02;;;;;;;8.5;4.5;;;;;;;19.05;100;99380.2;;;;
2021/09/02 12:16:16;;;;;;;9.1;4.7;;;;;;;19.06;100;99377.11;;;;
2021/09/02 12:26:07;;;;;;;6.6;4.6;;;;;;;19.43;100;99374.33;;;;
2021/09/02 12:36:03;;;;;;;9.7;5.5;;;;;;;19.17;100;99374.7;;;;
2021/09/02 12:46:07;;;;;;;5.5;3.2;;;;;;;19.35;100;99365.09;;;;
2021/09/02 12:56:06;;;;;;;5.2;3.4;;;;;;;19.81;100;99366.44;;;;
2021/09/02 13:06:04;;;;;;;7.7;3.5;;;;;;;20.17;100;99361.88;;;;
2021/09/02 13:16:05;;;;;;;8.1;4.1;;;;;;;20.31;100;99365.02;;;;
2021/09/02 13:26:05;;;;;;;8.7;3.1;;;;;;;20.75;100;99354.77;;;;
2021/09/02 13:36:06;;;;;;;8.9;2.9;;;;;;;20.82;99.5752;99342.03;;;;
2021/09/02 13:46:06;;;;;;;5.8;3.5;;;;;;;19.81;100;99346.48;;;;
2021/09/02 13:56:06;;;;;;;4.7;2.2;;;;;;;18.99;100;99349.56;;;;
2021/09/02 14:06:06;;;;;;;10.4;3.2;;;;;;;18.44;100;99349.34;;;;
2021/09/02 14:16:07;;;;;;;6.9;2.8;;;;;;;18.18;100;99354.33;;;;
2021/09/02 14:26:07;;;;;;;7.5;3.8;;;;;;;18.06;100;99363.27;;;;
2021/09/02 14:36:07;;;;;;;6.6;4.1;;;;;;;18.17;100;99360.91;;;;
2021/09/02 14:46:07;;;;;;;5.2;2.9;;;;;;;18.32;100;99352.08;;;;
2021/09/02 14:56:07;;;;;;;5.6;3.4;;;;;;;18.34;100;99342.41;;;;
2021/09/02 15:06:07;;;;;;;13.3;4.8;;;;;;;18.23;100;99334.99;;;;
2021/09/02 15:16:07;;;;;;;8.1;4.2;;;;;;;18.33;100;99335.34;;;;
2021/09/02 15:26:07;;;;;;;8.7;4.6;;;;;;;18.25;100;99325.35;;;;
2021/09/02 15:36:07;;;;;;;8.1;4.7;;;;;;;18.05;100;99324.28;;;;
2021/09/02 15:46:08;;;;;;;6;3.6;;;;;;;18.06;100;99322.36;;;;
2021/09/02 15:56:08;;;;;;;8.3;5.2;;;;;;;17.92;100;99328.13;;;;
2021/09/02 16:06:08;;;;;;;11.6;4.9;;;;;;;17.59;100;99314.53;;;;
2021/09/02 16:16:08;;;;;;;11.1;4.8;;;;;;;17.5;100;99313.77;;;;
2021/09/02 16:26:09;;;;;;;12;6.5;;;;;;;17.31;100;99313.48;;;;
2021/09/02 16:36:08;;;;;;;13.6;7.9;;;;;;;17.08;100;99315.73;;;;
2021/09/02 16:46:08;;;;;;;12.9;7.7;;;;;;;17.01;100;99299.13;;;;
2021/09/02 16:56:08;;;;;;;11.1;7.3;;;;;;;16.85;100;99287.24;;;;
2021/09/02 17:06:08;;;;;;;10.8;5.5;;;;;;;16.79;100;99288.58;;;;
2021/09/02 17:16:08;;;;;;;8.5;5.2;;;;;;;16.64;100;99286.42;;;;
2021/09/02 17:26:07;;;;;;;7.9;5.9;;;;;;;16.37;100;99292.32;;;;
2021/09/02 17:36:09;;;;;;;7.6;4.8;;;;;;;15.87;100;99297.63;;;;
2021/09/02 17:46:07;;;;;;;7.5;5.7;;;;;;;15.43;100;99298.83;;;;
2021/09/02 17:56:07;;;;;;;9;6.1;;;;;;;15.2;100;99300.94;;;;
2021/09/02 18:06:06;;;;;;;8.6;5.7;;;;;;;14.9;100;99308.09;;;;
2021/09/02 18:16:06;;;;;;;9.6;6.3;;;;;;;14.6;100;99320.67;;;;
2021/09/02 18:26:06;;;;;;;7.7;6.4;;;;;;;14.4;100;99320.45;;;;
2021/09/02 18:36:05;;;;;;;10.4;6.7;;;;;;;14.17;100;99327.02;;;;
2021/09/02 18:46:05;;;;;;;15.3;8.8;;;;;;;13.95;100;99331.38;;;;
2021/09/02 18:56:05;;;;;;;16.6;7.2;;;;;;;13.73;100;99331.43;;;;
2021/09/02 19:06:04;;;;;;;9.2;7;;;;;;;13.53;100;99326.52;;;;
2021/09/02 19:16:04;;;;;;;9.4;8.5;;;;;;;13.31;100;99321.91;;;;
2021/09/02 19:26:03;;;;;;;8.1;6.9;;;;;;;13.27;100;99299.25;;;;
2021/09/02 19:36:03;;;;;;;13.3;7.3;;;;;;;13.33;100;99297.24;;;;
2021/09/02 19:46:03;;;;;;;12.8;7.4;;;;;;;13.36;100;99302.03;;;;
2021/09/02 19:56:02;;;;;;;9.5;7.5;;;;;;;13.41;100;99288.36;;;;
2021/09/02 20:06:02;;;;;;;10;7;;;;;;;13.32;100;99295.63;;;;
2021/09/02 20:16:00;;;;;;;16.2;7.5;;;;;;;13.04;100;99298.42;;;;
2021/09/02 20:26:00;;;;;;;11.7;7.2;;;;;;;12.98;100;99301.55;;;;
2021/09/02 20:36:00;;;;;;;9.4;6.3;;;;;;;13.23;100;99311.8;;;;
2021/09/02 20:46:02;;;;;;;12;9.3;;;;;;;13.44;100;99315.62;;;;
2021/09/02 20:56:00;;;;;;;8.4;7.5;;;;;;;13.51;100;99312.47;;;;
2021/09/02 21:06:00;;;;;;;10.9;7.7;;;;;;;13.38;100;99324.17;;;;
2021/09/02 21:15:58;;;;;;;11.4;7.8;;;;;;;13.22;100;99326.45;;;;
2021/09/02 21:26:00;;;;;;;9;6.7;;;;;;;13.07;100;99337.59;;;;
2021/09/02 21:36:00;;;;;;;14.9;9;;;;;;;12.82;100;99324.63;;;;
2021/09/02 21:46:00;;;;;;;10.6;8.4;;;;;;;12.77;100;99338.27;;;;
2021/09/02 21:56:05;;;;;;;10.8;7.9;;;;;;;12.76;100;99325.84;;;;
2021/09/02 22:05:54;;;;;;;13.4;7.8;;;;;;;12.7;100;99329.77;;;;
2021/09/02 22:15:53;;;;;;;9.4;8.2;;;;;;;12.63;100;99317.43;;;;
2021/09/02 22:25:52;;;;;;;9.8;7.8;;;;;;;12.45;100;99314.87;;;;
2021/09/02 22:35:52;;;;;;;9.6;7.4;;;;;;;12.29;100;99303.55;;;;
2021/09/02 22:45:52;;;;;;;8.4;6.6;;;;;;;12.15;100;99291.94;;;;
2021/09/02 22:55:51;;;;;;;10.8;7.4;;;;;;;11.93;100;99283.73;;;;
2021/09/02 23:05:49;;;;;;;9.9;6.3;;;;;;;11.78;100;99286.7;;;;
2021/09/02 23:15:49;;;;;;;12.7;7.6;;;;;;;11.76;100;99292.42;;;;
2021/09/02 23:25:48;;;;;;;11;7.6;;;;;;;11.7;100;99287.38;;;;
2021/09/02 23:35:47;;;;;;;10.4;7.8;;;;;;;11.75;100;99285.41;;;;
2021/09/02 23:45:47;;;;;;;15.5;8.9;;;;;;;11.77;100;99277;;;;
2021/09/02 23:55:46;;;;;;;12.9;8.5;;;;;;;11.83;100;99267.73;;;;
